createdAt,value
2019-03-19T00:02:13.805Z,-0.10
2019-03-19T00:04:46.897Z,-0.13
2019-03-19T00:07:21.420Z,-0.17
2019-03-19T00:09:52.097Z,-0.15
2019-03-19T00:12:22.280Z,-0.17
2019-03-19T00:14:52.450Z,-0.22
2019-03-19T00:17:22.815Z,-0.28
2019-03-19T00:19:53.553Z,-0.28
2019-03-19T00:22:25.739Z,-0.28
2019-03-19T00:24:56.351Z,-0.30
2019-03-19T00:27:32.469Z,-0.56
2019-03-19T00:30:04.106Z,-0.40
2019-03-19T00:32:34.513Z,-0.35
2019-03-19T00:35:05.517Z,-0.33
2019-03-19T00:37:35.859Z,-0.35
2019-03-19T00:40:06.834Z,-0.42
2019-03-19T00:42:37.039Z,-0.46
2019-03-19T00:45:08.193Z,-0.48
2019-03-19T00:47:38.587Z,-0.42
2019-03-19T00:50:13.086Z,-0.47
2019-03-19T00:52:49.472Z,-0.54
2019-03-19T00:55:19.660Z,-0.60
2019-03-19T00:57:49.917Z,-0.53
2019-03-19T01:00:22.194Z,-0.49
2019-03-19T01:02:55.308Z,-0.50
2019-03-19T01:05:25.553Z,-0.57
2019-03-19T01:07:55.912Z,-0.57
2019-03-19T01:10:27.706Z,-0.54
2019-03-19T01:12:59.470Z,-0.51
2019-03-19T01:15:32.182Z,-0.47
2019-03-19T01:18:02.430Z,-0.52
2019-03-19T01:20:32.683Z,-0.53
2019-03-19T01:23:02.943Z,-0.54
2019-03-19T01:25:35.168Z,-0.52
2019-03-19T01:28:07.261Z,-0.47
2019-03-19T01:30:37.594Z,-0.37
2019-03-19T01:33:08.114Z,-0.31
2019-03-19T01:35:38.557Z,-0.29
2019-03-19T01:38:10.415Z,-0.24
2019-03-19T01:40:40.810Z,-0.17
2019-03-19T01:43:11.200Z,-0.17
2019-03-19T01:45:43.097Z,-0.13
2019-03-19T01:48:16.726Z,-0.07
2019-03-19T01:50:46.905Z,-0.09
2019-03-19T01:53:20.553Z,-0.09
2019-03-19T01:55:52.684Z,-0.13
2019-03-19T01:58:23.047Z,-0.09
2019-03-19T02:00:56.016Z,-0.10
2019-03-19T02:03:26.439Z,-0.13
2019-03-19T02:05:56.634Z,-0.14
2019-03-19T02:08:28.105Z,-0.12
2019-03-19T02:10:58.404Z,-0.17
2019-03-19T02:13:28.610Z,-0.12
2019-03-19T02:16:00.367Z,-0.15
2019-03-19T02:18:31.590Z,-0.14
2019-03-19T02:21:01.859Z,-0.12
2019-03-19T02:23:32.078Z,-0.10
2019-03-19T02:26:15.608Z,-0.10
2019-03-19T02:28:39.101Z,-0.01
2019-03-19T02:31:09.301Z,0.08
2019-03-19T02:33:39.806Z,0.14
2019-03-19T02:36:12.596Z,0.26
2019-03-19T02:38:42.897Z,0.27
2019-03-19T02:41:16.086Z,0.21
2019-03-19T02:43:47.863Z,0.27
2019-03-19T02:46:18.521Z,0.23
2019-03-19T02:48:48.720Z,0.28
2019-03-19T02:51:18.860Z,0.30
2019-03-19T02:53:49.038Z,0.35
2019-03-19T02:56:32.545Z,0.41
2019-03-19T02:58:53.095Z,0.46
2019-03-19T03:01:24.496Z,0.46
2019-03-19T03:03:54.873Z,0.47
2019-03-19T03:06:25.128Z,0.54
2019-03-19T03:08:55.248Z,0.52
2019-03-19T03:11:25.591Z,0.49
2019-03-19T03:13:56.255Z,0.47
2019-03-19T03:16:26.508Z,0.43
2019-03-19T03:18:56.942Z,0.44
2019-03-19T03:21:27.064Z,0.47
2019-03-19T03:23:57.225Z,0.41
2019-03-19T03:26:27.409Z,0.32
2019-03-19T03:28:59.334Z,0.25
2019-03-19T03:31:29.833Z,0.22
2019-03-19T03:34:00.218Z,0.18
2019-03-19T03:36:30.924Z,0.00
2019-03-19T03:39:01.145Z,-0.11
2019-03-19T03:41:33.066Z,-0.15
2019-03-19T03:44:03.764Z,-0.21
2019-03-19T03:46:33.911Z,-0.27
2019-03-19T03:49:04.117Z,-0.29
2019-03-19T03:51:34.313Z,-0.31
2019-03-19T03:54:04.534Z,-0.33
2019-03-19T03:56:36.740Z,-0.36
2019-03-19T03:59:07.110Z,-0.39
2019-03-19T04:01:37.263Z,-0.43
2019-03-19T04:04:07.652Z,-0.43
2019-03-19T04:06:38.200Z,-0.53
2019-03-19T04:09:10.598Z,-0.59
2019-03-19T04:11:41.287Z,-0.63
2019-03-19T04:14:11.779Z,-0.68
2019-03-19T04:16:41.934Z,-0.70
2019-03-19T04:19:12.826Z,-0.74
2019-03-19T04:21:44.640Z,-0.75
2019-03-19T04:24:16.646Z,-0.73
2019-03-19T04:26:52.599Z,-0.75
2019-03-19T04:29:22.830Z,-0.70
2019-03-19T04:31:53.595Z,-0.67
2019-03-19T04:34:24.271Z,-0.69
2019-03-19T04:36:57.178Z,-0.66
2019-03-19T04:39:27.468Z,-0.61
2019-03-19T04:41:58.001Z,-0.56
2019-03-19T04:44:28.774Z,-0.47
2019-03-19T04:46:59.046Z,-0.45
2019-03-19T04:49:29.393Z,-0.43
2019-03-19T04:51:59.588Z,-0.34
2019-03-19T04:54:29.840Z,-0.27
2019-03-19T04:57:02.220Z,-0.24
2019-03-19T04:59:34.037Z,-0.17
2019-03-19T05:02:04.414Z,-0.10
2019-03-19T05:04:35.163Z,-0.07
2019-03-19T05:07:08.551Z,-0.04
2019-03-19T05:09:38.756Z,0.04
2019-03-19T05:12:08.941Z,0.13
2019-03-19T05:14:39.132Z,0.22
2019-03-19T05:17:09.305Z,0.24
2019-03-19T05:19:39.598Z,0.25
2019-03-19T05:22:09.943Z,0.24
2019-03-19T05:24:40.568Z,0.21
2019-03-19T05:27:13.905Z,0.28
2019-03-19T05:29:44.130Z,0.12
2019-03-19T05:32:16.013Z,0.14
2019-03-19T05:34:46.374Z,0.23
2019-03-19T05:37:16.571Z,0.27
2019-03-19T05:39:47.177Z,0.32
2019-03-19T05:42:17.348Z,0.36
2019-03-19T05:44:47.556Z,0.28
2019-03-19T05:47:18.213Z,0.33
2019-03-19T05:49:50.163Z,0.44
2019-03-19T05:52:20.608Z,0.46
2019-03-19T05:54:50.856Z,0.53
2019-03-19T05:57:21.090Z,0.57
2019-03-19T05:59:51.388Z,0.59
2019-03-19T06:02:21.650Z,0.62
2019-03-19T06:04:54.350Z,0.62
2019-03-19T06:07:24.618Z,0.66
2019-03-19T06:09:59.038Z,0.72
2019-03-19T06:12:29.466Z,0.79
2019-03-19T06:15:03.058Z,0.81
2019-03-19T06:17:33.375Z,0.85
2019-03-19T06:20:04.260Z,0.87
2019-03-19T06:22:36.635Z,0.94
2019-03-19T06:25:07.802Z,0.98
2019-03-19T06:27:40.070Z,1.04
2019-03-19T06:30:13.488Z,1.09
2019-03-19T06:32:44.183Z,1.13
2019-03-19T06:35:15.422Z,1.21
2019-03-19T06:37:46.186Z,1.24
2019-03-19T06:40:22.695Z,1.30
2019-03-19T06:42:53.090Z,1.40
2019-03-19T06:45:24.644Z,1.51
2019-03-19T06:47:55.323Z,1.58
2019-03-19T06:50:28.022Z,1.66
2019-03-19T06:52:58.154Z,1.76
2019-03-19T06:55:28.728Z,1.97
2019-03-19T06:57:59.040Z,2.25
2019-03-19T07:00:32.370Z,2.50
2019-03-19T07:03:02.562Z,2.80
2019-03-19T07:05:32.730Z,3.06
2019-03-19T07:08:03.074Z,3.14
2019-03-19T07:10:33.323Z,3.18
2019-03-19T07:13:03.511Z,3.13
2019-03-19T07:15:34.177Z,3.23
2019-03-19T07:18:04.658Z,3.33
2019-03-19T07:20:34.937Z,3.40
2019-03-19T07:23:05.534Z,3.60
2019-03-19T07:25:36.058Z,3.96
2019-03-19T07:28:07.204Z,4.29
2019-03-19T07:30:37.679Z,4.38
2019-03-19T07:33:10.618Z,4.55
2019-03-19T07:35:46.952Z,4.70
2019-03-19T07:38:17.159Z,4.96
2019-03-19T07:40:54.138Z,5.11
2019-03-19T07:43:24.870Z,5.33
2019-03-19T07:45:57.675Z,5.66
2019-03-19T07:48:28.411Z,5.87
2019-03-19T07:51:02.485Z,5.96
2019-03-19T07:53:32.816Z,6.26
2019-03-19T07:56:04.785Z,6.69
2019-03-19T07:58:44.728Z,6.90
2019-03-19T08:01:08.148Z,7.19
2019-03-19T08:03:38.632Z,7.35
2019-03-19T08:06:08.833Z,7.81
2019-03-19T08:08:41.644Z,8.24
2019-03-19T08:11:13.146Z,8.82
2019-03-19T08:13:43.910Z,9.63
2019-03-19T08:16:14.526Z,10.04
2019-03-19T08:18:46.204Z,11.98
2019-03-19T08:21:16.616Z,12.86
2019-03-19T08:23:46.902Z,13.87
2019-03-19T08:26:17.111Z,14.69
2019-03-19T08:28:55.055Z,15.51
2019-03-19T08:31:19.309Z,16.61
2019-03-19T08:33:51.117Z,17.08
2019-03-19T08:36:21.611Z,17.82
2019-03-19T08:38:52.411Z,18.20
2019-03-19T08:41:23.120Z,18.70
2019-03-19T08:43:54.189Z,20.24
2019-03-19T08:46:25.631Z,21.07
2019-03-19T08:48:55.906Z,21.70
2019-03-19T08:51:26.635Z,21.46
2019-03-19T08:53:59.083Z,22.22
2019-03-19T08:56:30.149Z,22.93
2019-03-19T08:59:05.885Z,22.19
2019-03-19T09:01:32.539Z,20.46
2019-03-19T09:04:02.871Z,18.29
2019-03-19T09:06:33.595Z,19.02
2019-03-19T09:09:08.604Z,20.75
2019-03-19T09:11:38.961Z,22.53
2019-03-19T09:14:09.811Z,23.87
2019-03-19T09:16:40.790Z,24.22
2019-03-19T09:19:11.313Z,19.82
2019-03-19T09:21:42.063Z,17.85
2019-03-19T09:24:15.869Z,17.14
2019-03-19T09:26:46.725Z,18.41
2019-03-19T09:29:17.499Z,18.37
2019-03-19T09:31:48.144Z,18.84
2019-03-19T09:34:18.644Z,19.94
2019-03-19T09:36:57.378Z,20.71
2019-03-19T09:39:22.601Z,19.05
2019-03-19T09:41:53.408Z,17.71
2019-03-19T09:44:24.271Z,17.36
2019-03-19T09:46:54.614Z,16.09
2019-03-19T09:49:26.504Z,14.53
2019-03-19T09:51:57.062Z,15.11
2019-03-19T09:54:27.652Z,13.82
2019-03-19T09:56:58.225Z,12.42
2019-03-19T09:59:28.905Z,12.61
2019-03-19T10:01:59.576Z,14.73
2019-03-19T10:04:30.571Z,15.16
2019-03-19T10:07:06.281Z,16.46
2019-03-19T10:09:38.263Z,17.93
2019-03-19T10:12:10.852Z,19.91
2019-03-19T10:14:43.481Z,21.56
2019-03-19T10:17:14.201Z,21.69
2019-03-19T10:19:44.480Z,24.65
2019-03-19T10:22:15.310Z,26.34
2019-03-19T10:24:45.922Z,26.06
2019-03-19T10:27:21.440Z,25.51
2019-03-19T10:29:54.072Z,22.06
2019-03-19T10:32:24.569Z,23.13
2019-03-19T10:34:54.904Z,22.23
2019-03-19T10:37:25.825Z,24.22
2019-03-19T10:39:55.999Z,24.45
2019-03-19T10:42:26.267Z,25.98
2019-03-19T10:44:56.646Z,25.71
2019-03-19T10:47:27.234Z,25.70
2019-03-19T10:49:57.728Z,26.97
2019-03-19T10:52:28.129Z,27.97
2019-03-19T10:54:58.388Z,28.18
2019-03-19T10:57:30.308Z,29.32
2019-03-19T11:00:13.248Z,29.65
2019-03-19T11:02:47.333Z,30.81
2019-03-19T11:05:18.072Z,31.05
2019-03-19T11:07:48.604Z,30.59
2019-03-19T11:10:19.320Z,30.76
2019-03-19T11:12:51.789Z,29.13
2019-03-19T11:15:22.210Z,27.23
2019-03-19T11:17:52.522Z,27.08
2019-03-19T11:20:22.863Z,28.11
2019-03-19T11:22:53.513Z,25.52
2019-03-19T11:25:23.962Z,24.00
2019-03-19T11:27:57.216Z,23.82
2019-03-19T11:30:31.151Z,19.84
2019-03-19T11:33:01.464Z,19.33
2019-03-19T11:35:32.823Z,19.39
2019-03-19T11:38:03.274Z,23.19
2019-03-19T11:40:36.014Z,26.17
2019-03-19T11:43:06.881Z,28.23
2019-03-19T11:45:37.260Z,29.02
2019-03-19T11:48:07.564Z,30.28
2019-03-19T11:50:41.230Z,31.90
2019-03-19T11:53:11.909Z,29.32
2019-03-19T11:55:42.165Z,26.69
2019-03-19T11:58:12.672Z,28.33
2019-03-19T12:00:45.588Z,28.50
2019-03-19T12:03:16.735Z,29.73
2019-03-19T12:05:47.326Z,30.65
2019-03-19T12:08:17.595Z,31.64
2019-03-19T12:10:48.058Z,32.24
2019-03-19T12:13:19.363Z,32.53
2019-03-19T12:15:51.577Z,31.67
2019-03-19T12:18:21.888Z,29.87
2019-03-19T12:20:52.241Z,30.35
2019-03-19T12:23:23.042Z,26.35
2019-03-19T12:25:53.177Z,21.74
2019-03-19T12:28:25.450Z,20.02
2019-03-19T12:30:55.289Z,19.80
2019-03-19T12:33:25.597Z,19.49
2019-03-19T12:35:57.811Z,20.31
2019-03-19T12:38:28.067Z,19.23
2019-03-19T12:40:58.386Z,19.30
2019-03-19T12:43:28.538Z,18.53
2019-03-19T12:45:59.106Z,19.32
2019-03-19T12:48:32.286Z,19.67
2019-03-19T12:51:02.701Z,21.21
2019-03-19T12:53:35.800Z,24.16
2019-03-19T12:56:06.093Z,25.15
2019-03-19T12:58:44.684Z,26.08
2019-03-19T13:01:15.293Z,26.50
2019-03-19T13:03:45.681Z,23.97
2019-03-19T13:06:15.901Z,26.66
2019-03-19T13:08:46.248Z,28.57
2019-03-19T13:11:16.912Z,28.28
2019-03-19T13:13:47.322Z,30.03
2019-03-19T13:16:17.568Z,30.94
2019-03-19T13:18:47.769Z,30.89
2019-03-19T13:21:18.035Z,30.82
2019-03-19T13:23:48.321Z,30.99
2019-03-19T13:26:21.760Z,29.42
2019-03-19T13:28:52.390Z,26.13
2019-03-19T13:31:26.232Z,25.33
2019-03-19T13:33:56.718Z,22.54
2019-03-19T13:36:27.035Z,22.89
2019-03-19T13:38:57.399Z,22.05
2019-03-19T13:41:28.145Z,21.29
2019-03-19T13:43:58.615Z,20.77
2019-03-19T13:46:29.552Z,19.87
2019-03-19T13:49:00.143Z,21.21
2019-03-19T13:51:31.085Z,21.77
2019-03-19T13:54:04.125Z,23.06
2019-03-19T13:56:34.280Z,23.75
2019-03-19T13:59:04.767Z,21.42
2019-03-19T14:01:35.438Z,19.78
2019-03-19T14:04:08.586Z,19.01
2019-03-19T14:06:39.030Z,22.00
2019-03-19T14:09:10.435Z,22.07
2019-03-19T14:11:40.660Z,24.24
2019-03-19T14:14:11.670Z,23.41
2019-03-19T14:16:41.945Z,23.51
2019-03-19T14:19:18.536Z,23.30
2019-03-19T14:21:50.333Z,24.95
2019-03-19T14:24:21.486Z,24.84
2019-03-19T14:26:52.262Z,23.16
2019-03-19T14:29:23.082Z,22.08
2019-03-19T14:31:53.507Z,21.14
2019-03-19T14:34:24.082Z,20.83
2019-03-19T14:36:54.268Z,22.56
2019-03-19T14:39:24.453Z,22.97
2019-03-19T14:41:54.954Z,22.69
2019-03-19T14:44:25.820Z,22.28
2019-03-19T14:46:57.744Z,21.01
2019-03-19T14:49:28.045Z,20.31
2019-03-19T14:51:58.320Z,18.91
2019-03-19T14:54:31.990Z,18.11
2019-03-19T14:57:03.623Z,18.16
2019-03-19T14:59:35.444Z,18.51
2019-03-19T15:02:07.920Z,17.49
2019-03-19T15:04:39.899Z,17.60
2019-03-19T15:07:10.160Z,17.32
2019-03-19T15:09:40.928Z,16.67
2019-03-19T15:12:11.456Z,15.59
2019-03-19T15:14:46.586Z,16.13
2019-03-19T15:17:17.917Z,15.85
2019-03-19T15:19:48.490Z,15.33
2019-03-19T15:22:19.367Z,15.64
2019-03-19T15:24:52.081Z,14.94
2019-03-19T15:27:22.619Z,14.85
2019-03-19T15:29:56.311Z,14.54
2019-03-19T15:32:29.420Z,14.57
2019-03-19T15:35:00.776Z,14.53
2019-03-19T15:37:31.565Z,14.26
2019-03-19T15:40:02.194Z,14.23
2019-03-19T15:42:32.443Z,13.59
2019-03-19T15:45:02.820Z,13.73
2019-03-19T15:47:34.627Z,13.29
2019-03-19T15:50:06.605Z,13.43
2019-03-19T15:52:39.906Z,13.22
2019-03-19T15:55:10.446Z,13.16
2019-03-19T15:57:41.211Z,12.85
2019-03-19T16:00:15.373Z,12.77
2019-03-19T16:02:45.634Z,12.80
2019-03-19T16:05:18.518Z,12.59
2019-03-19T16:07:49.651Z,12.75
2019-03-19T16:10:20.071Z,12.45
2019-03-19T16:12:52.280Z,12.16
2019-03-19T16:15:23.104Z,12.10
2019-03-19T16:17:53.558Z,11.81
2019-03-19T16:20:23.980Z,11.87
2019-03-19T16:22:55.217Z,11.65
2019-03-19T16:25:25.487Z,11.76
2019-03-19T16:27:59.130Z,11.71
2019-03-19T16:30:29.442Z,11.51
2019-03-19T16:32:59.986Z,11.43
2019-03-19T16:35:30.236Z,11.29
2019-03-19T16:38:01.004Z,11.06
2019-03-19T16:40:33.982Z,11.15
2019-03-19T16:43:04.368Z,10.97
2019-03-19T16:45:34.678Z,10.91
2019-03-19T16:48:05.107Z,10.85
2019-03-19T16:50:38.087Z,10.72
2019-03-19T16:53:08.740Z,10.53
2019-03-19T16:55:39.305Z,10.43
2019-03-19T16:58:09.640Z,10.18
2019-03-19T17:00:40.360Z,9.99
2019-03-19T17:03:12.565Z,10.13
2019-03-19T17:05:42.864Z,9.93
2019-03-19T17:08:13.141Z,9.87
2019-03-19T17:10:43.517Z,9.80
2019-03-19T17:13:14.221Z,9.67
2019-03-19T17:15:44.597Z,9.56
2019-03-19T17:18:16.899Z,9.48
2019-03-19T17:20:47.088Z,9.32
2019-03-19T17:23:17.571Z,9.05
2019-03-19T17:25:47.829Z,8.90
2019-03-19T17:28:22.660Z,8.69
2019-03-19T17:30:51.044Z,8.58
2019-03-19T17:33:21.574Z,8.48
2019-03-19T17:35:52.308Z,8.38
2019-03-19T17:38:22.628Z,8.31
2019-03-19T17:40:52.976Z,8.22
2019-03-19T17:43:23.458Z,8.09
2019-03-19T17:45:56.439Z,8.01
2019-03-19T17:48:27.047Z,7.79
2019-03-19T17:50:57.630Z,7.58
2019-03-19T17:53:28.103Z,7.44
2019-03-19T17:55:58.760Z,7.35
2019-03-19T17:58:29.009Z,7.23
2019-03-19T18:00:59.363Z,7.12
2019-03-19T18:03:30.276Z,7.06
2019-03-19T18:06:00.580Z,6.98
2019-03-19T18:08:30.922Z,6.82
2019-03-19T18:11:01.515Z,6.78
2019-03-19T18:13:31.801Z,6.65
2019-03-19T18:16:05.114Z,6.56
2019-03-19T18:18:35.659Z,6.46
2019-03-19T18:21:06.582Z,6.36
2019-03-19T18:23:36.915Z,6.33
2019-03-19T18:26:09.382Z,6.26
2019-03-19T18:28:39.885Z,6.13
2019-03-19T18:31:10.547Z,5.95
2019-03-19T18:33:41.216Z,5.82
2019-03-19T18:36:11.511Z,5.67
2019-03-19T18:38:42.002Z,5.45
2019-03-19T18:41:15.051Z,5.26
2019-03-19T18:43:45.975Z,5.02
2019-03-19T18:46:17.137Z,4.71
2019-03-19T18:48:48.640Z,4.71
2019-03-19T18:51:19.420Z,4.62
2019-03-19T18:53:49.822Z,4.50
2019-03-19T18:56:20.366Z,4.46
2019-03-19T18:58:51.715Z,4.39
2019-03-19T19:01:22.320Z,4.38
2019-03-19T19:03:52.759Z,4.40
2019-03-19T19:06:23.088Z,4.17
2019-03-19T19:08:53.861Z,4.02
2019-03-19T19:11:24.779Z,3.88
2019-03-19T19:13:55.212Z,3.80
2019-03-19T19:16:25.589Z,3.68
2019-03-19T19:18:58.662Z,3.59
2019-03-19T19:21:29.017Z,3.47
2019-03-19T19:23:59.464Z,3.37
2019-03-19T19:26:30.014Z,3.34
2019-03-19T19:29:00.483Z,3.32
2019-03-19T19:31:31.187Z,3.33
2019-03-19T19:34:01.878Z,3.26
2019-03-19T19:36:32.342Z,3.12
2019-03-19T19:39:03.195Z,2.94
2019-03-19T19:41:35.505Z,2.89
2019-03-19T19:44:06.468Z,2.82
2019-03-19T19:46:39.817Z,2.73
2019-03-19T19:49:10.160Z,2.73
2019-03-19T19:51:40.937Z,2.61
2019-03-19T19:54:11.442Z,2.59
2019-03-19T19:56:42.318Z,2.64
2019-03-19T19:59:12.755Z,2.58
2019-03-19T20:01:47.209Z,2.56
2019-03-19T20:04:17.902Z,2.61
2019-03-19T20:06:48.512Z,2.58
2019-03-19T20:09:19.071Z,2.29
2019-03-19T20:11:49.401Z,2.11
2019-03-19T20:14:19.705Z,1.88
2019-03-19T20:16:51.382Z,2.06
2019-03-19T20:19:23.689Z,1.98
2019-03-19T20:21:55.661Z,1.97
2019-03-19T20:24:26.236Z,1.93
2019-03-19T20:26:56.988Z,1.99
2019-03-19T20:29:27.458Z,1.98
2019-03-19T20:31:58.160Z,1.83
2019-03-19T20:34:30.609Z,1.64
2019-03-19T20:41:01.260Z,1.54
2019-03-19T20:43:32.187Z,1.42
2019-03-19T20:46:04.081Z,1.33
2019-03-19T20:48:35.997Z,1.28
2019-03-19T20:51:07.315Z,1.20
2019-03-19T20:53:37.851Z,1.09
2019-03-19T20:56:09.949Z,1.04
2019-03-19T20:58:43.766Z,1.03
2019-03-19T21:01:12.644Z,1.05
2019-03-19T21:03:43.605Z,1.08
2019-03-19T21:06:15.675Z,0.92
2019-03-19T21:08:46.100Z,0.97
2019-03-19T21:11:16.885Z,0.96
2019-03-19T21:13:49.150Z,0.61
2019-03-19T21:16:20.079Z,0.55
2019-03-19T21:18:50.589Z,0.59
2019-03-19T21:21:21.051Z,0.62
2019-03-19T21:23:51.695Z,0.58
2019-03-19T21:26:22.199Z,0.64
2019-03-19T21:28:52.467Z,0.61
2019-03-19T21:31:22.906Z,0.58
2019-03-19T21:33:53.875Z,0.54
2019-03-19T21:36:24.587Z,0.51
2019-03-19T21:38:56.258Z,0.46
2019-03-19T21:41:27.070Z,0.34
2019-03-19T21:44:00.014Z,0.27
2019-03-19T21:46:30.493Z,0.27
2019-03-19T21:49:01.772Z,0.22
2019-03-19T21:51:33.122Z,0.23
2019-03-19T21:54:03.736Z,0.28
2019-03-19T21:56:34.215Z,0.24
2019-03-19T21:59:05.396Z,0.11
2019-03-19T22:01:35.946Z,0.07
2019-03-19T22:04:06.736Z,0.02
2019-03-19T22:06:37.179Z,0.04
2019-03-19T22:09:07.972Z,0.01
2019-03-19T22:11:38.505Z,-0.09
2019-03-19T22:14:09.201Z,-0.10
2019-03-19T22:16:39.942Z,-0.09
2019-03-19T22:19:18.711Z,-0.13
2019-03-19T22:21:52.886Z,-0.19
2019-03-19T22:24:25.286Z,-0.29
2019-03-19T22:26:55.767Z,-0.27
2019-03-19T22:29:26.328Z,-0.31
2019-03-19T22:31:56.486Z,-0.30
2019-03-19T22:34:26.628Z,-0.18
2019-03-19T22:36:57.321Z,-0.27
2019-03-19T22:39:27.881Z,-0.34
2019-03-19T22:41:58.406Z,-0.36
2019-03-19T22:44:33.006Z,-0.32
2019-03-19T22:47:03.526Z,-0.35
2019-03-19T22:49:37.811Z,-0.37
2019-03-19T22:52:11.049Z,-0.34
2019-03-19T22:54:41.239Z,-0.39
2019-03-19T22:57:12.018Z,-0.46
2019-03-19T22:59:44.942Z,-0.55
2019-03-19T23:02:19.303Z,-0.59
2019-03-19T23:04:50.640Z,-0.72
2019-03-19T23:07:21.042Z,-1.09
2019-03-19T23:09:51.781Z,-1.00
2019-03-19T23:12:24.686Z,-1.04
2019-03-19T23:14:55.633Z,-0.86
2019-03-19T23:17:26.034Z,-0.87
2019-03-19T23:19:57.498Z,-0.88
2019-03-19T23:22:28.068Z,-0.84
2019-03-19T23:24:59.717Z,-0.77
2019-03-19T23:27:30.265Z,-0.83
2019-03-19T23:30:00.475Z,-0.90
2019-03-19T23:32:31.192Z,-1.00
2019-03-19T23:35:01.627Z,-1.04
2019-03-19T23:37:33.885Z,-1.01
2019-03-19T23:40:04.767Z,-1.05
2019-03-19T23:42:37.252Z,-1.08
2019-03-19T23:45:09.282Z,-1.14
2019-03-19T23:47:39.519Z,-1.18
2019-03-19T23:50:12.577Z,-1.16
2019-03-19T23:52:45.080Z,-1.01
2019-03-19T23:55:16.694Z,-0.99
2019-03-19T23:57:49.501Z,-1.01
